Hankins, New York
Current Conditions -  °F | °C
As of 11:35 PM on Thursday 18 Dec 2014 (Local Time) from KMSV Reporting Station
Overcast Overcast  
Wind Chill: 17°   Ceiling: 1700
Heat Index: 28°   Visibility: 10mi
Dew Point: 25°   Wind: 14mph
Humidity: 86%   Direction: 310°NW
Pressure: 29.93"   Gusts: 18mph
Location:  41.81°N, 75.09°W
Report Text: KMSV 190435Z AUTO 31012G16KT 10SM OVC017 M02/M04 A2993 RMK AO1
Loading
Personal Weather Stations






























Interactive Weather Map New forecast layout! Learn more

10-Day Weather Forecast

Advertisements
Track Severe Weather on mobile